Aloha, Oregon
Current Conditions -  °F | °C
As of 7:53 AM on Thursday 23 Oct 2014 (Local Time) from KHIO Reporting Station
Overcast Overcast  
Wind Chill: 54°   Ceiling: 6000
Heat Index: 54°   Visibility: 10mi
Dew Point: 54°   Wind: 5mph
Humidity: 100%   Direction: 180°S
Pressure: 29.77"   Gusts: NA
Location:  45.49°N, 122.86°W
Report Text: KHIO 231453Z 18004KT 10SM SCT044 BKN060 OVC080 12/12 A2977 RMK AO2 RAE48 SLP079 P0000 60005 T01220122 53009
Loading
Personal Weather Stations






























Interactive Weather Map
Tropical Storm Tracking
New forecast layout! Learn more

10-Day Weather Forecast

Advertisements
Track Severe Weather on mobile